createdAt,value
2017-08-30T00:00:13.125Z,13.5
2017-08-30T00:01:13.924Z,17.4
2017-08-30T00:02:14.664Z,16.0
2017-08-30T00:03:15.428Z,15.9
2017-08-30T00:04:16.487Z,15.8
2017-08-30T00:05:17.275Z,16.0
2017-08-30T00:06:18.008Z,15.2
2017-08-30T00:07:18.723Z,15.3
2017-08-30T00:08:19.471Z,14.2
2017-08-30T00:09:20.504Z,17.3
2017-08-30T00:10:21.274Z,16.2
2017-08-30T00:11:22.070Z,20.0
2017-08-30T00:12:22.816Z,12.5
2017-08-30T00:13:23.615Z,13.1
2017-08-30T00:14:24.655Z,13.2
2017-08-30T00:15:25.392Z,16.9
2017-08-30T00:16:26.136Z,11.9
2017-08-30T00:17:26.865Z,12.9
2017-08-30T00:18:27.592Z,13.0
2017-08-30T00:19:28.675Z,13.5
2017-08-30T00:20:29.478Z,12.6
2017-08-30T00:21:30.306Z,13.5
2017-08-30T00:22:31.037Z,14.3
2017-08-30T00:23:31.771Z,12.8
2017-08-30T00:24:32.982Z,13.9
2017-08-30T00:25:33.748Z,13.3
2017-08-30T00:26:34.481Z,13.2
2017-08-30T00:27:35.294Z,17.1
2017-08-30T00:28:36.026Z,11.8
2017-08-30T00:29:36.964Z,13.3
2017-08-30T00:30:37.697Z,12.5
2017-08-30T00:31:38.439Z,11.9
2017-08-30T00:32:39.252Z,12.5
2017-08-30T00:33:39.977Z,12.9
2017-08-30T00:34:41.201Z,11.9
2017-08-30T00:35:41.924Z,12.3
2017-08-30T00:36:42.755Z,12.2
2017-08-30T00:37:43.495Z,12.6
2017-08-30T00:38:44.247Z,12.5
2017-08-30T00:39:45.777Z,13.9
2017-08-30T00:40:46.602Z,13.1
2017-08-30T00:41:47.345Z,12.9
2017-08-30T00:42:48.073Z,12.1
2017-08-30T00:43:48.898Z,13.4
2017-08-30T00:44:50.057Z,14.1
2017-08-30T00:45:50.822Z,17.4
2017-08-30T00:46:51.567Z,14.6
2017-08-30T00:47:52.292Z,15.0
2017-08-30T00:48:53.025Z,15.2
2017-08-30T00:49:54.063Z,16.3
2017-08-30T00:50:54.839Z,15.9
2017-08-30T00:51:55.680Z,15.4
2017-08-30T00:52:56.464Z,15.0
2017-08-30T00:53:57.267Z,14.9
2017-08-30T00:54:58.004Z,14.5
2017-08-30T00:55:58.801Z,14.3
2017-08-30T00:56:59.822Z,16.1
2017-08-30T00:58:00.645Z,15.8
2017-08-30T00:59:01.403Z,17.8
2017-08-30T01:00:02.162Z,18.7
2017-08-30T01:01:02.892Z,15.1
2017-08-30T01:02:03.927Z,17.0
2017-08-30T01:03:04.652Z,16.6
2017-08-30T01:04:05.398Z,17.2
2017-08-30T01:05:06.150Z,17.1
2017-08-30T01:06:06.988Z,18.8
2017-08-30T01:07:08.008Z,17.5
2017-08-30T01:08:08.812Z,17.2
2017-08-30T01:09:09.580Z,18.6
2017-08-30T01:10:10.361Z,19.6
2017-08-30T01:11:11.115Z,19.5
2017-08-30T01:12:11.844Z,19.8
2017-08-30T01:13:12.592Z,21.2
2017-08-30T01:14:13.393Z,19.5
2017-08-30T01:15:14.333Z,21.1
2017-08-30T01:16:15.056Z,21.4
2017-08-30T01:17:15.796Z,22.8
2017-08-30T01:18:16.534Z,22.4
2017-08-30T01:19:17.316Z,23.1
2017-08-30T01:20:18.422Z,22.7
2017-08-30T01:21:19.152Z,24.4
2017-08-30T01:22:19.908Z,22.3
2017-08-30T01:23:20.704Z,22.8
2017-08-30T01:24:21.482Z,21.4
2017-08-30T01:25:22.422Z,22.9
2017-08-30T01:26:23.223Z,22.9
2017-08-30T01:27:23.952Z,23.3
2017-08-30T01:28:24.776Z,22.2
2017-08-30T01:29:25.503Z,25.5
2017-08-30T01:30:26.657Z,25.4
2017-08-30T01:31:27.391Z,25.9
2017-08-30T01:32:28.140Z,24.9
2017-08-30T01:33:28.962Z,24.7
2017-08-30T01:34:29.706Z,24.5
2017-08-30T01:35:30.656Z,25.2
2017-08-30T01:36:31.392Z,25.1
2017-08-30T01:37:32.155Z,24.5
2017-08-30T01:38:32.953Z,26.0
2017-08-30T01:39:33.696Z,25.0
2017-08-30T01:40:34.622Z,26.8
2017-08-30T01:41:35.353Z,25.0
2017-08-30T01:42:36.095Z,29.4
2017-08-30T01:43:36.834Z,27.3
2017-08-30T01:44:37.656Z,26.5
2017-08-30T01:45:38.597Z,27.0
2017-08-30T01:46:39.387Z,27.4
2017-08-30T01:47:40.125Z,27.5
2017-08-30T01:48:40.865Z,27.1
2017-08-30T01:49:41.646Z,27.5
2017-08-30T01:50:42.418Z,27.8
2017-08-30T01:51:43.256Z,28.9
2017-08-30T01:52:44.141Z,28.2
2017-08-30T01:53:44.868Z,29.0
2017-08-30T01:54:45.605Z,31.1
2017-08-30T01:55:46.339Z,26.8
2017-08-30T01:56:47.062Z,28.5
2017-08-30T01:57:47.826Z,28.0
2017-08-30T01:58:49.351Z,28.2
2017-08-30T01:59:50.092Z,27.3
2017-08-30T02:00:50.826Z,28.5
2017-08-30T02:01:51.556Z,28.4
2017-08-30T02:02:52.284Z,28.9
2017-08-30T02:03:53.482Z,29.9
2017-08-30T02:04:54.216Z,28.6
2017-08-30T02:05:54.957Z,28.2
2017-08-30T02:06:55.777Z,28.6
2017-08-30T02:07:56.522Z,29.0
2017-08-30T02:08:57.566Z,28.9
2017-08-30T02:09:58.315Z,27.6
2017-08-30T02:10:59.052Z,30.3
2017-08-30T02:11:59.783Z,30.1
2017-08-30T02:13:00.526Z,30.5
2017-08-30T02:14:01.629Z,29.5
2017-08-30T02:15:02.415Z,32.8
2017-08-30T02:16:03.229Z,27.0
2017-08-30T02:17:03.954Z,27.0
2017-08-30T02:18:04.757Z,26.9
2017-08-30T02:19:05.727Z,25.7
2017-08-30T02:20:06.461Z,26.3
2017-08-30T02:21:07.186Z,27.1
2017-08-30T02:22:07.902Z,26.0
2017-08-30T02:23:08.641Z,26.0
2017-08-30T02:24:09.785Z,28.1
2017-08-30T02:25:10.589Z,24.4
2017-08-30T02:26:11.332Z,23.0
2017-08-30T02:27:12.073Z,23.2
2017-08-30T02:28:12.876Z,23.4
2017-08-30T02:29:13.894Z,23.4
2017-08-30T02:30:14.702Z,23.9
2017-08-30T02:31:15.446Z,22.7
2017-08-30T02:32:16.182Z,24.9
2017-08-30T02:33:16.918Z,22.0
2017-08-30T02:34:18.138Z,22.7
2017-08-30T02:35:18.879Z,22.3
2017-08-30T02:36:19.606Z,21.3
2017-08-30T02:37:20.343Z,22.0
2017-08-30T02:38:21.085Z,21.5
2017-08-30T02:39:22.060Z,20.9
2017-08-30T02:40:22.820Z,19.5
2017-08-30T02:41:23.639Z,21.5
2017-08-30T02:42:24.386Z,19.0
2017-08-30T02:43:25.124Z,19.2
2017-08-30T02:44:26.124Z,21.2
2017-08-30T02:45:26.914Z,20.9
2017-08-30T02:46:27.672Z,18.9
2017-08-30T02:47:28.463Z,22.9
2017-08-30T02:48:29.236Z,24.5
2017-08-30T02:49:30.196Z,20.6
2017-08-30T02:50:31.033Z,20.1
2017-08-30T02:51:31.759Z,19.4
2017-08-30T02:52:32.533Z,20.0
2017-08-30T02:53:33.267Z,20.0
2017-08-30T02:54:34.292Z,19.4
2017-08-30T02:55:35.037Z,20.4
2017-08-30T02:56:35.839Z,20.5
2017-08-30T02:57:36.662Z,19.9
2017-08-30T02:58:37.394Z,22.0
2017-08-30T02:59:38.387Z,19.4
2017-08-30T03:00:39.121Z,22.7
2017-08-30T03:01:39.920Z,19.9
2017-08-30T03:02:40.652Z,19.3
2017-08-30T03:03:41.424Z,18.1
2017-08-30T03:04:43.870Z,19.6
2017-08-30T03:05:45.055Z,18.4
2017-08-30T03:06:47.025Z,19.3
2017-08-30T03:07:47.950Z,18.6
2017-08-30T03:08:48.717Z,20.2
2017-08-30T03:09:49.506Z,20.2
2017-08-30T03:10:50.318Z,19.9
2017-08-30T03:11:51.333Z,19.6
2017-08-30T03:12:52.092Z,20.5
2017-08-30T03:13:52.846Z,20.6
2017-08-30T03:14:53.581Z,18.9
2017-08-30T03:15:54.331Z,19.2
2017-08-30T03:16:55.376Z,19.4
2017-08-30T03:17:56.113Z,18.8
2017-08-30T03:18:56.864Z,19.1
2017-08-30T03:19:57.608Z,20.8
2017-08-30T03:20:58.420Z,19.6
2017-08-30T03:21:59.402Z,19.0
2017-08-30T03:23:00.144Z,19.8
2017-08-30T03:24:00.941Z,19.0
2017-08-30T03:25:01.729Z,17.8
2017-08-30T03:26:02.468Z,17.7
2017-08-30T03:27:03.202Z,18.6
2017-08-30T03:28:03.958Z,17.7
2017-08-30T03:29:04.762Z,17.6
2017-08-30T03:30:05.497Z,16.6
2017-08-30T03:31:06.453Z,16.9
2017-08-30T03:32:07.185Z,16.0
2017-08-30T03:33:07.985Z,15.4
2017-08-30T03:34:08.721Z,15.7
2017-08-30T03:35:09.513Z,18.4
2017-08-30T03:36:10.650Z,15.0
2017-08-30T03:37:11.484Z,19.0
2017-08-30T03:38:12.303Z,17.9
2017-08-30T03:39:13.126Z,15.8
2017-08-30T03:40:13.867Z,16.2
2017-08-30T03:41:15.012Z,15.4
2017-08-30T03:42:15.813Z,16.7
2017-08-30T03:43:16.547Z,17.8
2017-08-30T03:44:17.292Z,15.3
2017-08-30T03:45:18.102Z,17.8
2017-08-30T03:46:19.260Z,15.6
2017-08-30T03:47:20.003Z,15.9
2017-08-30T03:48:20.734Z,15.2
2017-08-30T03:49:21.544Z,15.2
2017-08-30T03:50:22.297Z,13.7
2017-08-30T03:51:23.334Z,15.0
2017-08-30T03:52:24.127Z,16.3
2017-08-30T03:53:24.868Z,15.1
2017-08-30T03:54:25.680Z,16.7
2017-08-30T03:55:26.409Z,16.1
2017-08-30T03:56:27.444Z,16.0
2017-08-30T03:57:28.245Z,13.4
2017-08-30T03:58:29.033Z,14.1
2017-08-30T03:59:29.763Z,14.3
2017-08-30T04:01:33.393Z,16.7
2017-08-30T04:02:35.020Z,16.0
2017-08-30T04:03:36.449Z,15.3
2017-08-30T04:04:37.932Z,15.6
2017-08-30T04:05:39.026Z,15.5
2017-08-30T04:06:40.531Z,16.0
2017-08-30T04:07:41.383Z,14.6
2017-08-30T04:08:42.197Z,18.0
2017-08-30T04:09:42.982Z,16.1
2017-08-30T04:10:44.563Z,14.8
2017-08-30T04:11:45.657Z,15.7
2017-08-30T04:12:46.397Z,15.6
2017-08-30T04:13:47.138Z,15.0
2017-08-30T04:14:47.866Z,17.3
2017-08-30T04:15:48.682Z,17.6
2017-08-30T04:16:49.813Z,17.7
2017-08-30T04:17:50.603Z,16.8
2017-08-30T04:18:51.382Z,16.2
2017-08-30T04:19:52.172Z,16.9
2017-08-30T04:20:52.948Z,16.3
2017-08-30T04:21:53.979Z,17.0
2017-08-30T04:22:54.717Z,17.0
2017-08-30T04:23:55.445Z,16.8
2017-08-30T04:24:56.249Z,18.4
2017-08-30T04:25:57.059Z,30.2
2017-08-30T04:26:58.092Z,20.5
2017-08-30T04:27:58.832Z,17.6
2017-08-30T04:28:59.623Z,17.5
2017-08-30T04:30:00.355Z,19.1
2017-08-30T04:31:01.162Z,18.8
2017-08-30T04:32:02.093Z,18.9
2017-08-30T04:33:02.823Z,19.6
2017-08-30T04:34:03.562Z,19.2
2017-08-30T04:35:04.311Z,19.4
2017-08-30T04:36:05.043Z,18.1
2017-08-30T04:37:06.018Z,19.4
2017-08-30T04:38:06.753Z,19.9
2017-08-30T04:39:07.490Z,20.2
2017-08-30T04:40:08.228Z,23.6
2017-08-30T04:41:08.967Z,19.3
2017-08-30T04:42:10.111Z,19.3
2017-08-30T04:43:10.862Z,19.4
2017-08-30T04:44:11.659Z,20.7
2017-08-30T04:45:12.486Z,19.3
2017-08-30T04:46:13.177Z,23.7
2017-08-30T04:47:14.284Z,21.4
2017-08-30T04:48:15.018Z,21.8
2017-08-30T04:49:15.758Z,30.1
2017-08-30T04:50:16.588Z,22.6
2017-08-30T04:51:17.339Z,22.0
2017-08-30T04:52:18.392Z,22.6
2017-08-30T04:53:19.224Z,22.7
2017-08-30T04:54:19.964Z,22.4
2017-08-30T04:55:20.718Z,22.7
2017-08-30T04:56:21.445Z,26.4
2017-08-30T04:57:22.394Z,21.9
2017-08-30T04:58:23.217Z,22.2
2017-08-30T04:59:23.966Z,22.3
2017-08-30T05:00:24.756Z,22.5
2017-08-30T05:01:25.485Z,23.5
2017-08-30T05:02:26.640Z,25.7
2017-08-30T05:03:27.384Z,20.9
2017-08-30T05:04:28.125Z,21.7
2017-08-30T05:05:28.870Z,21.7
2017-08-30T05:06:29.684Z,23.4
2017-08-30T05:07:30.744Z,22.4
2017-08-30T05:08:31.477Z,21.4
2017-08-30T05:09:32.285Z,22.1
2017-08-30T05:10:33.055Z,21.0
2017-08-30T05:11:33.876Z,21.1
2017-08-30T05:12:34.917Z,21.5
2017-08-30T05:13:35.667Z,20.5
2017-08-30T05:14:36.408Z,20.3
2017-08-30T05:15:37.181Z,21.1
2017-08-30T05:16:37.916Z,22.8
2017-08-30T05:17:38.919Z,20.3
2017-08-30T05:18:39.637Z,22.4
2017-08-30T05:19:40.464Z,22.7
2017-08-30T05:20:41.207Z,19.5
2017-08-30T05:21:41.961Z,20.7
2017-08-30T05:22:43.110Z,18.9
2017-08-30T05:23:43.842Z,18.7
2017-08-30T05:24:44.672Z,17.1
2017-08-30T05:25:45.423Z,17.5
2017-08-30T05:26:46.201Z,19.1
2017-08-30T05:27:47.247Z,16.2
2017-08-30T05:28:48.000Z,21.2
2017-08-30T05:29:48.739Z,17.0
2017-08-30T05:30:49.471Z,16.7
2017-08-30T05:31:50.232Z,16.2
2017-08-30T05:32:50.992Z,17.8
2017-08-30T05:33:51.732Z,16.4
2017-08-30T05:34:52.684Z,14.7
2017-08-30T05:35:53.467Z,14.8
2017-08-30T05:36:54.277Z,15.6
2017-08-30T05:37:55.025Z,16.6
2017-08-30T05:38:55.777Z,14.9
2017-08-30T05:39:56.849Z,15.1
2017-08-30T05:40:57.697Z,20.0
2017-08-30T05:41:58.438Z,16.3
2017-08-30T05:42:59.228Z,14.3
2017-08-30T05:44:00.016Z,16.4
2017-08-30T05:45:01.016Z,15.2
2017-08-30T05:46:01.757Z,17.1
2017-08-30T05:47:02.497Z,15.8
2017-08-30T05:48:03.354Z,22.4
2017-08-30T05:49:04.125Z,15.4
2017-08-30T05:50:05.269Z,16.0
2017-08-30T05:51:06.017Z,19.2
2017-08-30T05:52:06.762Z,15.4
2017-08-30T05:53:07.504Z,15.2
2017-08-30T05:54:08.635Z,15.9
2017-08-30T05:55:09.568Z,17.3
2017-08-30T05:56:10.337Z,17.7
2017-08-30T05:57:11.071Z,17.0
2017-08-30T05:58:11.877Z,20.3
2017-08-30T05:59:12.627Z,17.2
2017-08-30T06:00:13.565Z,15.9
2017-08-30T06:01:14.312Z,16.0
2017-08-30T06:02:15.114Z,16.7
2017-08-30T06:03:15.858Z,17.0
2017-08-30T06:04:16.704Z,17.0
2017-08-30T06:05:17.882Z,16.4
2017-08-30T06:06:18.625Z,16.4
2017-08-30T06:07:19.434Z,16.8
2017-08-30T06:08:20.232Z,17.2
2017-08-30T06:09:20.993Z,16.9
2017-08-30T06:10:21.746Z,18.5
2017-08-30T06:11:22.537Z,20.4
2017-08-30T06:12:23.346Z,17.1
2017-08-30T06:13:24.087Z,17.0
2017-08-30T06:14:24.832Z,17.1
2017-08-30T06:15:25.612Z,16.0
2017-08-30T06:16:26.357Z,16.6
2017-08-30T06:17:27.517Z,18.2
2017-08-30T06:18:28.336Z,15.7
2017-08-30T06:19:29.093Z,19.6
2017-08-30T06:20:29.909Z,16.4
2017-08-30T06:21:30.648Z,15.1
2017-08-30T06:22:31.633Z,15.2
2017-08-30T06:23:32.376Z,17.1
2017-08-30T06:24:33.120Z,14.1
2017-08-30T06:25:33.863Z,16.7
2017-08-30T06:26:34.612Z,15.7
2017-08-30T06:27:35.362Z,17.5
2017-08-30T06:28:36.348Z,16.9
2017-08-30T06:29:37.098Z,18.6
2017-08-30T06:30:37.832Z,13.5
2017-08-30T06:31:38.572Z,15.8
2017-08-30T06:32:39.312Z,14.6
2017-08-30T06:33:40.453Z,15.9
2017-08-30T06:34:41.195Z,14.7
2017-08-30T06:35:42.023Z,15.4
2017-08-30T06:36:42.780Z,16.2
2017-08-30T06:37:43.563Z,17.6
2017-08-30T06:38:44.705Z,19.2
2017-08-30T06:39:45.522Z,15.2
2017-08-30T06:40:46.281Z,15.1
2017-08-30T06:41:47.065Z,14.8
2017-08-30T06:42:47.816Z,14.9
2017-08-30T06:43:48.976Z,16.5
2017-08-30T06:44:50.812Z,15.0
2017-08-30T06:45:52.876Z,12.5
2017-08-30T06:46:54.415Z,13.1
2017-08-30T06:47:56.729Z,14.0
2017-08-30T06:48:59.211Z,13.7
2017-08-30T06:50:00.795Z,13.2
2017-08-30T06:51:01.630Z,12.7
2017-08-30T06:52:02.447Z,12.5
2017-08-30T06:53:03.314Z,12.3
2017-08-30T06:54:04.506Z,13.4
2017-08-30T06:55:05.276Z,11.8
2017-08-30T06:56:05.996Z,14.2
2017-08-30T06:57:06.756Z,11.6
2017-08-30T06:58:07.500Z,17.0
2017-08-30T06:59:08.296Z,12.1
2017-08-30T07:00:09.446Z,11.3
2017-08-30T07:01:10.233Z,11.2
2017-08-30T07:02:11.059Z,11.4
2017-08-30T07:03:11.850Z,11.3
2017-08-30T07:04:12.649Z,10.6
2017-08-30T07:05:13.466Z,10.9
2017-08-30T07:06:14.220Z,14.3
2017-08-30T07:07:14.939Z,10.6
2017-08-30T07:08:15.672Z,14.6
2017-08-30T07:09:16.409Z,14.7
2017-08-30T07:10:17.455Z,10.4
2017-08-30T07:11:18.198Z,10.9
2017-08-30T07:12:19.017Z,11.7
2017-08-30T07:13:19.755Z,12.0
2017-08-30T07:14:20.597Z,13.5
2017-08-30T07:15:21.693Z,10.1
2017-08-30T07:16:22.437Z,10.7
2017-08-30T07:17:23.168Z,13.4
2017-08-30T07:18:23.919Z,10.9
2017-08-30T07:19:24.723Z,10.1
2017-08-30T07:20:25.797Z,10.3
2017-08-30T07:21:26.538Z,12.5
2017-08-30T07:22:27.358Z,13.2
2017-08-30T07:23:28.169Z,11.3
2017-08-30T07:24:28.966Z,10.1
2017-08-30T07:25:30.065Z,11.9
2017-08-30T07:26:30.796Z,11.4
2017-08-30T07:27:31.551Z,9.6
2017-08-30T07:28:32.360Z,9.3
2017-08-30T07:29:33.138Z,10.0
2017-08-30T07:30:33.927Z,13.9
2017-08-30T07:31:34.717Z,10.0
2017-08-30T07:32:35.468Z,9.9
2017-08-30T07:33:36.693Z,12.6
2017-08-30T07:34:37.447Z,14.9
2017-08-30T07:35:38.279Z,12.3
2017-08-30T07:36:38.985Z,11.4
2017-08-30T07:37:39.736Z,11.9
2017-08-30T07:38:40.775Z,10.1
2017-08-30T07:39:41.549Z,12.2
2017-08-30T07:40:42.233Z,10.4
2017-08-30T07:41:42.964Z,10.9
2017-08-30T07:42:43.707Z,10.7
2017-08-30T07:43:45.510Z,10.4
2017-08-30T07:44:47.747Z,11.6
2017-08-30T07:45:49.115Z,10.3
2017-08-30T07:46:50.241Z,10.1
2017-08-30T07:47:51.076Z,10.5
2017-08-30T07:48:52.042Z,11.6
2017-08-30T07:49:53.186Z,12.2
2017-08-30T07:50:53.891Z,12.2
2017-08-30T07:51:54.674Z,13.6
2017-08-30T07:52:55.500Z,11.4
2017-08-30T07:53:56.353Z,10.4
2017-08-30T07:54:57.540Z,10.4
2017-08-30T07:55:58.322Z,11.5
2017-08-30T07:56:59.078Z,10.9
2017-08-30T07:57:59.899Z,11.4
2017-08-30T07:59:00.711Z,12.6
2017-08-30T08:00:01.806Z,12.4
2017-08-30T08:01:02.597Z,9.7
2017-08-30T08:02:03.417Z,10.1
2017-08-30T08:03:04.228Z,10.8
2017-08-30T08:04:05.017Z,9.1
2017-08-30T08:05:06.163Z,10.3
2017-08-30T08:06:06.895Z,10.9
2017-08-30T08:07:07.633Z,10.4
2017-08-30T08:08:08.372Z,17.5
2017-08-30T08:09:09.121Z,10.5
2017-08-30T08:10:10.288Z,11.4
2017-08-30T08:11:11.088Z,10.2
2017-08-30T08:12:11.889Z,10.3
2017-08-30T08:13:12.707Z,10.6
2017-08-30T08:14:13.511Z,10.9
2017-08-30T08:15:14.515Z,10.4
2017-08-30T08:16:15.284Z,10.1
2017-08-30T08:17:16.023Z,10.5
2017-08-30T08:18:16.774Z,12.5
2017-08-30T08:19:17.604Z,12.4
2017-08-30T08:20:18.698Z,12.4
2017-08-30T08:21:19.502Z,10.2
2017-08-30T08:22:20.236Z,11.8
2017-08-30T08:23:20.992Z,14.3
2017-08-30T08:24:21.742Z,10.0
2017-08-30T08:25:22.795Z,14.0
2017-08-30T08:26:23.544Z,10.0
2017-08-30T08:27:24.345Z,9.0
2017-08-30T08:28:25.078Z,9.0
2017-08-30T08:29:25.911Z,9.2
2017-08-30T08:30:27.018Z,8.9
2017-08-30T08:31:27.760Z,14.4
2017-08-30T08:32:28.505Z,9.6
2017-08-30T08:33:29.242Z,10.6
2017-08-30T08:34:30.002Z,8.5
2017-08-30T08:35:31.108Z,11.4
2017-08-30T08:36:31.907Z,9.7
2017-08-30T08:37:32.706Z,8.7
2017-08-30T08:38:33.449Z,7.9
2017-08-30T08:39:34.286Z,12.8
2017-08-30T08:40:35.445Z,9.4
2017-08-30T08:41:36.200Z,9.0
2017-08-30T08:42:36.940Z,7.6
2017-08-30T08:43:37.699Z,8.1
2017-08-30T08:44:38.512Z,10.8
2017-08-30T08:45:39.554Z,7.8
2017-08-30T08:46:40.294Z,8.2
2017-08-30T08:47:41.036Z,8.4
2017-08-30T08:48:41.813Z,9.6
2017-08-30T08:49:42.634Z,10.9
2017-08-30T08:50:43.677Z,8.9
2017-08-30T08:51:44.469Z,7.8
2017-08-30T08:52:45.204Z,7.7
2017-08-30T08:53:46.012Z,8.3
2017-08-30T08:54:46.756Z,8.0
2017-08-30T08:55:47.811Z,7.4
2017-08-30T08:56:48.630Z,9.9
2017-08-30T08:57:49.404Z,7.9
2017-08-30T08:58:50.212Z,10.1
2017-08-30T08:59:51.008Z,11.3
2017-08-30T09:00:51.786Z,8.2
2017-08-30T09:01:52.524Z,7.3
2017-08-30T09:02:53.341Z,10.7
2017-08-30T09:03:54.457Z,9.7
2017-08-30T09:04:55.202Z,9.7
2017-08-30T09:05:55.947Z,7.1
2017-08-30T09:06:56.697Z,8.2
2017-08-30T09:07:57.432Z,11.8
2017-08-30T09:08:58.374Z,7.7
2017-08-30T09:09:59.123Z,8.7
2017-08-30T09:10:59.905Z,7.2
2017-08-30T09:12:00.730Z,9.6
2017-08-30T09:13:01.493Z,10.7
2017-08-30T09:14:02.241Z,10.1
2017-08-30T09:15:02.981Z,8.9
2017-08-30T09:16:03.724Z,10.2
2017-08-30T09:17:04.550Z,8.3
2017-08-30T09:18:05.364Z,7.7
2017-08-30T09:19:06.373Z,7.2
2017-08-30T09:20:07.124Z,7.9
2017-08-30T09:21:07.871Z,10.8
2017-08-30T09:22:08.603Z,8.8
2017-08-30T09:23:09.371Z,7.4
2017-08-30T09:24:10.092Z,8.2
2017-08-30T09:25:10.859Z,7.4
2017-08-30T09:26:11.597Z,7.1
2017-08-30T09:27:12.648Z,9.7
2017-08-30T09:28:13.388Z,7.2
2017-08-30T09:29:14.123Z,7.5
2017-08-30T09:30:14.874Z,7.2
2017-08-30T09:31:15.674Z,8.2
2017-08-30T09:32:16.416Z,8.5
2017-08-30T09:33:17.416Z,9.2
2017-08-30T09:34:18.153Z,8.3
2017-08-30T09:35:18.898Z,9.3
2017-08-30T09:36:19.726Z,7.9
2017-08-30T09:37:20.466Z,10.1
2017-08-30T09:38:21.411Z,9.3
2017-08-30T09:39:22.153Z,11.8
2017-08-30T09:40:22.896Z,8.3
2017-08-30T09:41:23.649Z,12.7
2017-08-30T09:42:24.458Z,8.0
2017-08-30T09:43:25.493Z,8.2
2017-08-30T09:44:26.235Z,9.0
2017-08-30T09:45:27.022Z,10.2
2017-08-30T09:46:27.790Z,8.4
2017-08-30T09:47:28.484Z,7.9
2017-08-30T09:48:29.551Z,14.4
2017-08-30T09:49:30.310Z,10.7
2017-08-30T09:50:31.138Z,13.3
2017-08-30T09:51:31.956Z,18.7
2017-08-30T09:52:32.708Z,8.6
2017-08-30T09:53:33.973Z,8.7
2017-08-30T09:54:34.726Z,8.8
2017-08-30T09:55:35.489Z,9.2
2017-08-30T09:56:36.285Z,8.7
2017-08-30T09:57:37.035Z,8.7
2017-08-30T09:58:38.053Z,9.2
2017-08-30T09:59:38.864Z,8.5
2017-08-30T10:00:39.688Z,9.5
2017-08-30T10:01:40.511Z,8.4
2017-08-30T10:02:41.267Z,8.6
2017-08-30T10:03:42.501Z,11.6
2017-08-30T10:04:43.325Z,7.9
2017-08-30T10:05:44.077Z,11.2
2017-08-30T10:06:44.907Z,9.0
2017-08-30T10:07:45.643Z,9.2
2017-08-30T10:08:46.842Z,9.4
2017-08-30T10:09:47.608Z,13.5
2017-08-30T10:10:48.400Z,8.5
2017-08-30T10:11:49.175Z,13.2
2017-08-30T10:12:50.004Z,9.9
2017-08-30T10:13:50.847Z,15.5
2017-08-30T10:14:51.676Z,9.4
2017-08-30T10:15:52.659Z,10.5
2017-08-30T10:16:53.482Z,9.1
2017-08-30T10:17:54.252Z,11.4
2017-08-30T10:18:55.006Z,9.0
2017-08-30T10:19:55.753Z,11.8
2017-08-30T10:20:56.571Z,10.0
2017-08-30T10:21:57.756Z,12.1
2017-08-30T10:22:58.503Z,9.7
2017-08-30T10:23:59.264Z,9.2
2017-08-30T10:25:00.715Z,10.1
2017-08-30T10:26:01.897Z,10.2
2017-08-30T10:27:02.989Z,11.0
2017-08-30T10:28:03.663Z,9.3
2017-08-30T10:29:04.465Z,10.8
2017-08-30T10:30:05.299Z,16.4
2017-08-30T10:31:06.139Z,10.9
2017-08-30T10:32:07.221Z,9.0
2017-08-30T10:33:07.984Z,8.4
2017-08-30T10:34:08.788Z,9.3
2017-08-30T10:35:09.626Z,10.8
2017-08-30T10:36:10.407Z,8.5
2017-08-30T10:37:11.159Z,11.6
2017-08-30T10:38:12.161Z,8.9
2017-08-30T10:39:12.893Z,13.2
2017-08-30T10:40:13.703Z,8.3
2017-08-30T10:41:14.515Z,8.8
2017-08-30T10:42:15.262Z,10.2
2017-08-30T10:43:16.407Z,8.6
2017-08-30T10:44:17.193Z,8.6
2017-08-30T10:45:17.936Z,8.9
2017-08-30T10:46:18.678Z,9.3
2017-08-30T10:47:19.476Z,10.4
2017-08-30T10:48:20.673Z,12.7
2017-08-30T10:49:21.416Z,12.3
2017-08-30T10:50:22.167Z,13.2
2017-08-30T10:51:22.927Z,10.5
2017-08-30T10:52:23.731Z,11.9
2017-08-30T10:53:24.885Z,11.9
2017-08-30T10:54:25.646Z,13.9
2017-08-30T10:55:26.403Z,9.7
2017-08-30T10:56:27.152Z,13.1
2017-08-30T10:57:27.897Z,9.5
2017-08-30T10:58:28.962Z,10.8
2017-08-30T10:59:29.703Z,11.1
2017-08-30T11:00:30.445Z,10.4
2017-08-30T11:01:31.195Z,14.0
2017-08-30T11:02:31.956Z,9.3
2017-08-30T11:03:33.171Z,7.9
2017-08-30T11:04:33.963Z,8.5
2017-08-30T11:05:34.717Z,10.4
2017-08-30T11:06:35.541Z,11.7
2017-08-30T11:07:36.376Z,10.1
2017-08-30T11:08:37.513Z,9.8
2017-08-30T11:09:38.247Z,9.6
2017-08-30T11:10:38.985Z,16.6
2017-08-30T11:11:39.789Z,11.7
2017-08-30T11:12:40.592Z,11.2
2017-08-30T11:13:41.401Z,11.0
2017-08-30T11:14:42.141Z,9.6
2017-08-30T11:15:43.281Z,13.0
2017-08-30T11:16:44.045Z,10.4
2017-08-30T11:17:44.848Z,10.6
2017-08-30T11:18:46.178Z,9.6
2017-08-30T11:19:47.057Z,10.4
2017-08-30T11:20:47.819Z,10.4
2017-08-30T11:21:49.023Z,10.0
2017-08-30T11:22:49.834Z,9.2
2017-08-30T11:23:50.616Z,13.4
2017-08-30T11:24:51.297Z,9.8
2017-08-30T11:25:52.051Z,9.1
2017-08-30T11:26:53.186Z,10.2
2017-08-30T11:27:53.963Z,13.5
2017-08-30T11:28:54.992Z,10.8
2017-08-30T11:29:55.946Z,14.6
2017-08-30T11:30:56.713Z,9.8
2017-08-30T11:31:57.876Z,11.2
2017-08-30T11:32:58.692Z,11.9
2017-08-30T11:33:59.481Z,10.6
2017-08-30T11:35:00.316Z,15.1
2017-08-30T11:36:01.074Z,9.4
2017-08-30T11:37:01.805Z,10.6
2017-08-30T11:38:02.860Z,12.9
2017-08-30T11:39:03.612Z,10.3
2017-08-30T11:40:04.357Z,10.1
2017-08-30T11:41:05.111Z,20.5
2017-08-30T11:42:05.857Z,10.6
2017-08-30T11:43:06.938Z,8.0
2017-08-30T11:44:07.734Z,9.7
2017-08-30T11:45:08.516Z,9.7
2017-08-30T11:46:09.337Z,11.7
2017-08-30T11:47:10.164Z,12.7
2017-08-30T11:48:10.913Z,9.6
2017-08-30T11:49:11.987Z,9.6
2017-08-30T11:50:12.741Z,10.8
2017-08-30T11:51:13.556Z,10.8
2017-08-30T11:52:14.382Z,9.6
2017-08-30T11:53:15.135Z,11.4
2017-08-30T11:54:16.115Z,15.6
2017-08-30T11:55:16.853Z,15.0
2017-08-30T11:56:17.666Z,11.5
2017-08-30T11:57:18.425Z,11.4
2017-08-30T11:58:19.175Z,12.9
2017-08-30T11:59:19.911Z,12.3
2017-08-30T12:00:21.021Z,20.3
2017-08-30T12:01:21.816Z,10.0
2017-08-30T12:02:22.581Z,11.0
2017-08-30T12:03:23.331Z,12.1
2017-08-30T12:04:24.083Z,11.8
2017-08-30T12:05:25.120Z,10.7
2017-08-30T12:06:25.880Z,11.9
2017-08-30T12:07:26.627Z,11.8
2017-08-30T12:08:27.397Z,12.2
2017-08-30T12:09:28.192Z,15.1
2017-08-30T12:10:29.296Z,17.0
2017-08-30T12:11:30.046Z,10.2
2017-08-30T12:12:30.793Z,10.7
2017-08-30T12:13:31.546Z,10.7
2017-08-30T12:14:32.346Z,10.4
2017-08-30T12:15:33.088Z,15.0
2017-08-30T12:16:33.918Z,13.5
2017-08-30T12:17:34.998Z,12.4
2017-08-30T12:18:35.788Z,15.4
2017-08-30T12:19:36.591Z,15.1
2017-08-30T12:20:37.341Z,14.5
2017-08-30T12:21:38.092Z,11.7
2017-08-30T12:22:39.147Z,13.9
2017-08-30T12:23:40.102Z,16.9
2017-08-30T12:24:40.956Z,13.0
2017-08-30T12:25:42.381Z,11.6
2017-08-30T12:26:43.269Z,12.6
2017-08-30T12:27:45.803Z,14.5
2017-08-30T12:28:46.714Z,11.4
2017-08-30T12:29:47.450Z,11.4
2017-08-30T12:30:48.217Z,10.9
2017-08-30T12:31:49.036Z,16.8
2017-08-30T12:32:51.495Z,15.8
2017-08-30T12:33:53.547Z,11.3
2017-08-30T12:34:55.590Z,15.5
2017-08-30T12:35:57.664Z,11.6
2017-08-30T12:36:58.980Z,11.9
2017-08-30T12:38:01.734Z,13.5
2017-08-30T12:39:03.718Z,12.2
2017-08-30T12:40:04.406Z,12.5
2017-08-30T12:41:05.142Z,14.0
2017-08-30T12:42:06.421Z,12.0
2017-08-30T12:43:07.585Z,13.9
2017-08-30T12:44:08.325Z,13.5
2017-08-30T12:45:09.085Z,12.4
2017-08-30T12:46:09.885Z,11.8
2017-08-30T12:47:10.661Z,12.2
2017-08-30T12:48:11.754Z,13.1
2017-08-30T12:49:12.501Z,12.8
2017-08-30T12:50:13.275Z,15.2
2017-08-30T12:51:14.081Z,13.3
2017-08-30T12:52:14.828Z,16.0
2017-08-30T12:53:15.938Z,14.7
2017-08-30T12:54:16.744Z,17.7
2017-08-30T12:55:17.494Z,15.3
2017-08-30T12:56:18.245Z,14.6
2017-08-30T12:57:19.000Z,15.8
2017-08-30T12:58:19.759Z,12.6
2017-08-30T12:59:20.500Z,22.1
2017-08-30T13:00:21.341Z,15.5
2017-08-30T13:01:22.717Z,14.3
2017-08-30T13:02:23.846Z,10.1
2017-08-30T13:03:24.603Z,13.8
2017-08-30T13:04:25.650Z,10.5
2017-08-30T13:05:26.454Z,11.5
2017-08-30T13:06:27.285Z,14.4
2017-08-30T13:07:28.783Z,10.4
2017-08-30T13:08:29.463Z,12.7
2017-08-30T13:09:30.258Z,13.9
2017-08-30T13:10:31.103Z,14.4
2017-08-30T13:11:31.950Z,12.7
2017-08-30T13:12:32.950Z,10.7
2017-08-30T13:13:33.721Z,13.9
2017-08-30T13:14:34.544Z,12.7
2017-08-30T13:15:35.304Z,14.6
2017-08-30T13:16:36.053Z,11.1
2017-08-30T13:17:37.223Z,10.4
2017-08-30T13:18:37.971Z,13.7
2017-08-30T13:19:38.804Z,18.1
2017-08-30T13:20:39.640Z,11.9
2017-08-30T13:21:41.219Z,12.4
2017-08-30T13:22:42.205Z,16.4
2017-08-30T13:23:43.041Z,11.9
2017-08-30T13:24:43.839Z,12.0
2017-08-30T13:25:44.586Z,10.7
2017-08-30T13:26:45.334Z,13.8
2017-08-30T13:27:46.289Z,10.5
2017-08-30T13:28:47.111Z,10.2
2017-08-30T13:29:47.850Z,11.4
2017-08-30T13:30:48.596Z,18.3
2017-08-30T13:31:49.353Z,13.0
2017-08-30T13:32:50.545Z,10.5
2017-08-30T13:33:51.361Z,15.4
2017-08-30T13:34:52.081Z,13.3